Maesteg, United Kingdom
Current Conditions -  °F | °C
As of 1:50 PM on Saturday 20 Dec 2014 (Local Time) from EGDX Reporting Station
Broken Clouds Broken Clouds  
Wind Chill: 42°   Ceiling: 3900
Heat Index: 48°   Visibility: 6mi
Dew Point: 41°   Wind: 18mph
Humidity: 76%   Direction: 290°WNW
Pressure: 30.39"   Gusts: NA
Location:  51.61°N, 3.66°W
Report Text: EGDX 201350Z AUTO 29016KT 9999 BKN039/// 09/05 Q1029
Loading
Personal Weather Stations






























Interactive Weather Map New forecast layout! Learn more

10-Day Weather Forecast

Advertisements
Track Severe Weather on mobile